Time;durP1;ratioP1;P1;durP2;ratioP2;P2;SDS_P1;SDS_P2;PMS_P1;PMS_P2;Temp;Humidity;BMP_temperature;BMP_pressure;BME280_temperature;BME280_humidity;BME280_pressure;Samples;Min_cycle;Max_cycle;Signal;HPM_P1;HPM_P2
2021/06/06 00:00:25;;;;;;;37.20;33.87;;;17.90;99.90;;;;;;5065164;28;20479;-50
2021/06/06 00:02:52;;;;;;;36.40;33.10;;;18.00;99.90;;;;;;5074590;28;20264;-48
2021/06/06 00:05:18;;;;;;;38.23;34.80;;;18.00;99.90;;;;;;5084903;28;20445;-51
2021/06/06 00:07:44;;;;;;;34.30;31.20;;;17.90;99.90;;;;;;5068190;28;20823;-47
2021/06/06 00:10:11;;;;;;;36.77;33.57;;;17.90;99.90;;;;;;5067541;28;20998;-49
2021/06/06 00:12:37;;;;;;;33.83;30.63;;;17.90;99.90;;;;;;5076013;28;20522;-50
2021/06/06 00:15:07;;;;;;;38.17;34.67;;;17.90;99.90;;;;;;5071716;28;20533;-52
2021/06/06 00:17:32;;;;;;;36.87;33.47;;;17.90;99.90;;;;;;5068230;28;20446;-46
2021/06/06 00:19:58;;;;;;;37.63;34.10;;;17.90;99.90;;;;;;5071192;28;20510;-48
2021/06/06 00:22:23;;;;;;;38.37;34.83;;;17.90;99.90;;;;;;5076712;28;20285;-48
2021/06/06 00:24:49;;;;;;;38.20;34.70;;;17.80;99.90;;;;;;5075109;28;20270;-50
2021/06/06 00:27:14;;;;;;;38.03;34.37;;;17.80;99.90;;;;;;5069238;28;20189;-47
2021/06/06 00:29:40;;;;;;;36.93;33.37;;;17.70;99.90;;;;;;5079031;28;20638;-47
2021/06/06 00:32:06;;;;;;;37.10;33.50;;;17.70;99.90;;;;;;5064193;28;20189;-49
2021/06/06 00:34:31;;;;;;;38.00;34.30;;;17.60;99.90;;;;;;5078141;28;20187;-48
2021/06/06 00:36:57;;;;;;;36.70;33.23;;;17.60;99.90;;;;;;5067647;28;20431;-50
2021/06/06 00:39:23;;;;;;;35.20;31.70;;;17.60;99.90;;;;;;5071174;28;20180;-50
2021/06/06 00:41:50;;;;;;;36.77;33.30;;;17.60;99.90;;;;;;5070913;28;20598;-50
2021/06/06 00:44:16;;;;;;;35.17;31.87;;;17.50;99.90;;;;;;5082573;28;20434;-52
2021/06/06 00:46:43;;;;;;;35.10;31.70;;;17.50;99.90;;;;;;5069623;28;20538;-52
2021/06/06 00:49:09;;;;;;;33.50;30.30;;;17.50;99.90;;;;;;5076174;28;20427;-50
2021/06/06 00:51:47;;;;;;;34.43;31.17;;;17.40;99.90;;;;;;5059455;28;21324;-53
2021/06/06 00:54:29;;;;;;;32.70;29.70;;;17.40;99.90;;;;;;5068820;28;20434;-50
2021/06/06 00:57:06;;;;;;;32.83;29.73;;;17.30;99.90;;;;;;5076883;28;20448;-53
2021/06/06 00:59:35;;;;;;;31.87;28.83;;;17.30;99.90;;;;;;5064785;28;20498;-48
2021/06/06 01:02:01;;;;;;;31.47;28.47;;;17.30;99.90;;;;;;5066134;28;20883;-47
2021/06/06 01:04:26;;;;;;;32.07;28.87;;;17.30;99.90;;;;;;5085971;28;20430;-50
2021/06/06 01:06:53;;;;;;;30.77;27.90;;;17.30;99.90;;;;;;5078243;28;20203;-52
2021/06/06 01:09:22;;;;;;;31.70;28.77;;;17.30;99.90;;;;;;5070033;28;20187;-50
2021/06/06 01:11:48;;;;;;;33.53;30.33;;;17.20;99.90;;;;;;5068845;28;20426;-51
2021/06/06 01:14:21;;;;;;;30.80;27.80;;;17.20;99.90;;;;;;5078544;28;20443;-50
2021/06/06 01:16:54;;;;;;;30.97;27.97;;;17.20;99.90;;;;;;5073292;28;20177;-48
2021/06/06 01:19:34;;;;;;;30.90;28.20;;;17.20;99.90;;;;;;5073886;28;20443;-48
2021/06/06 01:22:08;;;;;;;30.73;27.93;;;17.20;99.90;;;;;;5074323;28;20469;-51
2021/06/06 01:24:55;;;;;;;30.37;27.50;;;17.20;99.90;;;;;;5069152;28;20439;-47
2021/06/06 01:27:28;;;;;;;31.50;28.33;;;17.10;99.90;;;;;;5072090;28;20438;-49
2021/06/06 01:29:58;;;;;;;30.87;27.87;;;17.10;99.90;;;;;;5083397;28;20456;-49
2021/06/06 01:33:00;;;;;;;31.30;28.40;;;17.10;99.90;;;;;;5077109;28;20442;-49
2021/06/06 01:35:31;;;;;;;30.33;27.50;;;17.00;99.90;;;;;;5075968;28;20452;-48
2021/06/06 01:38:05;;;;;;;29.67;26.87;;;17.00;99.90;;;;;;5085923;28;20441;-50
2021/06/06 01:40:33;;;;;;;29.00;26.33;;;16.90;99.90;;;;;;5085259;28;21165;-49
2021/06/06 01:43:04;;;;;;;29.77;26.97;;;16.90;99.90;;;;;;5078335;28;20550;-51
2021/06/06 01:45:38;;;;;;;32.63;29.50;;;16.90;99.90;;;;;;5082932;28;20445;-51
2021/06/06 01:48:09;;;;;;;30.83;27.93;;;16.90;99.90;;;;;;5068851;28;20439;-49
2021/06/06 01:50:40;;;;;;;29.83;27.10;;;16.90;99.90;;;;;;5069252;28;20939;-48
2021/06/06 01:53:07;;;;;;;28.57;25.83;;;16.90;99.90;;;;;;5070158;28;20997;-46
2021/06/06 01:55:36;;;;;;;30.97;28.13;;;16.90;99.90;;;;;;5074205;28;20536;-49
2021/06/06 01:58:05;;;;;;;29.40;26.70;;;16.90;99.90;;;;;;5077181;28;20488;-50
2021/06/06 02:00:57;;;;;;;33.80;30.70;;;16.90;99.90;;;;;;5080681;28;20477;-50
2021/06/06 02:03:22;;;;;;;32.17;29.13;;;16.90;99.90;;;;;;5069736;28;21264;-48
2021/06/06 02:05:49;;;;;;;34.20;31.07;;;16.90;99.90;;;;;;5080037;28;20437;-50
2021/06/06 02:08:18;;;;;;;33.63;30.27;;;17.00;99.90;;;;;;5069744;28;20219;-47
2021/06/06 02:10:50;;;;;;;34.07;30.80;;;17.00;99.90;;;;;;5073512;28;20431;-52
2021/06/06 02:13:26;;;;;;;32.47;29.47;;;17.10;99.90;;;;;;5080462;28;20549;-46
2021/06/06 02:15:58;;;;;;;32.23;29.30;;;17.10;99.90;;;;;;5074933;28;20438;-51
2021/06/06 02:18:26;;;;;;;31.97;29.00;;;17.10;99.90;;;;;;5069426;28;20438;-50
2021/06/06 02:20:52;;;;;;;34.53;31.13;;;17.20;99.90;;;;;;5071362;28;21303;-46
2021/06/06 02:23:24;;;;;;;30.43;27.53;;;17.20;99.90;;;;;;5073494;28;20459;-48
2021/06/06 02:25:56;;;;;;;30.80;27.90;;;17.30;99.90;;;;;;5079860;28;20476;-50
2021/06/06 02:28:29;;;;;;;30.83;27.97;;;17.30;99.90;;;;;;5070087;28;20827;-48
2021/06/06 02:31:02;;;;;;;29.30;26.67;;;17.30;99.90;;;;;;5077498;28;20465;-50
2021/06/06 02:33:46;;;;;;;30.13;27.33;;;17.30;99.90;;;;;;5073606;28;20434;-49
2021/06/06 02:36:15;;;;;;;29.30;26.50;;;17.30;99.90;;;;;;5071125;28;20439;-47
2021/06/06 02:38:49;;;;;;;28.57;25.97;;;17.30;99.90;;;;;;5083735;28;20436;-47
2021/06/06 02:41:47;;;;;;;30.53;27.50;;;17.30;99.90;;;;;;5073129;28;20501;-48
2021/06/06 02:44:24;;;;;;;29.43;26.70;;;17.30;99.90;;;;;;5070329;28;20442;-48
2021/06/06 02:46:51;;;;;;;28.67;26.00;;;17.20;99.90;;;;;;5080034;28;20474;-46
2021/06/06 02:49:30;;;;;;;29.07;26.50;;;17.10;99.90;;;;;;5069600;28;20441;-51
2021/06/06 02:52:11;;;;;;;30.30;27.40;;;17.10;99.90;;;;;;5078420;28;20435;-49
2021/06/06 02:54:44;;;;;;;32.17;29.20;;;17.10;99.90;;;;;;5069735;28;20430;-48
2021/06/06 02:57:14;;;;;;;29.67;26.97;;;17.10;99.90;;;;;;5069734;28;20423;-49
2021/06/06 02:59:50;;;;;;;30.80;28.00;;;17.10;99.90;;;;;;5059461;28;20528;-50
2021/06/06 03:02:21;;;;;;;29.67;26.87;;;17.20;99.90;;;;;;5067221;28;20466;-48
2021/06/06 03:04:51;;;;;;;31.80;28.57;;;17.20;99.90;;;;;;5070419;28;20843;-50
2021/06/06 03:07:39;;;;;;;30.33;27.43;;;17.20;99.90;;;;;;5072524;28;20440;-48
2021/06/06 03:10:06;;;;;;;29.97;26.97;;;17.30;99.90;;;;;;5070989;28;20551;-48
2021/06/06 03:12:32;;;;;;;30.10;27.33;;;17.30;99.90;;;;;;5075548;28;20777;-49
2021/06/06 03:15:00;;;;;;;28.20;25.50;;;17.30;99.90;;;;;;5073295;28;20450;-49
2021/06/06 03:17:31;;;;;;;30.07;27.07;;;17.40;99.90;;;;;;5076482;28;20534;-49
2021/06/06 03:20:00;;;;;;;28.00;25.50;;;17.40;99.90;;;;;;5068086;28;20444;-49
2021/06/06 03:22:32;;;;;;;27.80;25.20;;;17.40;99.90;;;;;;5075064;28;20467;-48
2021/06/06 03:25:01;;;;;;;28.90;26.20;;;17.50;99.90;;;;;;5071455;28;20530;-47
2021/06/06 03:27:35;;;;;;;27.60;25.00;;;17.50;99.90;;;;;;5078661;28;20436;-48
2021/06/06 03:30:16;;;;;;;29.20;26.57;;;17.50;99.90;;;;;;5068501;28;20989;-46
2021/06/06 03:32:46;;;;;;;29.67;26.97;;;17.50;99.90;;;;;;5076932;28;20517;-49
2021/06/06 03:35:12;;;;;;;29.00;26.30;;;17.60;99.90;;;;;;5066120;28;20527;-47
2021/06/06 03:37:38;;;;;;;28.90;26.10;;;17.60;99.90;;;;;;5068649;28;20431;-49
2021/06/06 03:40:09;;;;;;;28.27;25.67;;;17.60;99.90;;;;;;5069317;28;20804;-51
2021/06/06 03:42:36;;;;;;;29.93;27.03;;;17.60;99.90;;;;;;5071471;28;20497;-47
2021/06/06 03:45:04;;;;;;;27.53;24.93;;;17.70;99.90;;;;;;5072256;28;20473;-47
2021/06/06 03:47:29;;;;;;;29.60;27.00;;;17.70;99.90;;;;;;5077774;28;20492;-47
2021/06/06 03:49:55;;;;;;;29.30;26.50;;;17.70;99.90;;;;;;5074800;28;20438;-47
2021/06/06 03:52:20;;;;;;;29.63;26.90;;;17.80;99.90;;;;;;5067331;28;20195;-45
2021/06/06 03:54:46;;;;;;;30.00;27.00;;;17.80;99.90;;;;;;5068968;28;20666;-48
2021/06/06 03:57:12;;;;;;;28.90;26.00;;;17.90;99.90;;;;;;5068216;28;20423;-47
2021/06/06 03:59:37;;;;;;;26.90;24.23;;;17.90;99.90;;;;;;5067654;28;20346;-48
2021/06/06 04:02:04;;;;;;;28.80;25.90;;;18.00;99.90;;;;;;5070007;28;20201;-47
2021/06/06 04:04:29;;;;;;;28.27;25.47;;;18.00;99.90;;;;;;5075332;28;20216;-49
2021/06/06 04:06:55;;;;;;;28.77;26.10;;;18.00;99.90;;;;;;5070271;28;20447;-53
2021/06/06 04:09:21;;;;;;;28.30;25.50;;;18.00;99.90;;;;;;5074072;28;20169;-51
2021/06/06 04:11:46;;;;;;;28.27;25.43;;;18.10;99.90;;;;;;5079592;28;20227;-52
2021/06/06 04:14:12;;;;;;;28.60;25.90;;;18.10;99.90;;;;;;5074788;28;20227;-47
2021/06/06 04:16:39;;;;;;;29.50;26.80;;;18.10;99.90;;;;;;5067708;28;20185;-48
2021/06/06 04:19:06;;;;;;;28.33;25.87;;;18.20;99.90;;;;;;5069794;28;20260;-48
2021/06/06 04:21:33;;;;;;;28.97;26.27;;;18.20;99.90;;;;;;5080374;28;20496;-48
2021/06/06 04:23:59;;;;;;;26.67;24.27;;;18.20;99.90;;;;;;5073697;28;20908;-52
2021/06/06 04:26:25;;;;;;;28.60;26.00;;;18.30;99.90;;;;;;5070223;28;20534;-49
2021/06/06 04:28:52;;;;;;;25.90;23.57;;;18.30;99.90;;;;;;5072888;28;20458;-50
2021/06/06 04:31:18;;;;;;;26.80;24.30;;;18.40;99.90;;;;;;5066743;28;20192;-51
2021/06/06 04:33:44;;;;;;;26.90;24.50;;;18.40;99.90;;;;;;5073406;28;20805;-49
2021/06/06 04:36:10;;;;;;;26.20;23.73;;;18.40;99.90;;;;;;5066571;28;20447;-48
2021/06/06 04:38:36;;;;;;;25.97;23.47;;;18.50;99.90;;;;;;5070829;28;20181;-49
2021/06/06 04:41:05;;;;;;;27.20;24.70;;;18.50;99.90;;;;;;5067581;28;20196;-49
2021/06/06 04:43:31;;;;;;;26.67;24.17;;;18.70;99.90;;;;;;5070638;28;20504;-50
2021/06/06 04:45:57;;;;;;;26.87;24.27;;;18.70;99.90;;;;;;5066515;28;20450;-49
2021/06/06 04:48:34;;;;;;;26.77;24.40;;;18.80;99.90;;;;;;5071753;28;20436;-50
2021/06/06 04:51:02;;;;;;;25.10;22.90;;;18.90;99.90;;;;;;5077327;28;20188;-50
2021/06/06 04:53:29;;;;;;;24.33;22.13;;;18.90;99.90;;;;;;5071261;28;20447;-49
2021/06/06 04:55:56;;;;;;;25.00;22.70;;;19.10;99.90;;;;;;5072308;28;20537;-52
2021/06/06 04:58:24;;;;;;;23.57;21.47;;;19.10;99.90;;;;;;5070412;28;21191;-49
2021/06/06 05:00:50;;;;;;;24.80;22.60;;;19.10;99.90;;;;;;5070685;28;20505;-49
2021/06/06 05:03:18;;;;;;;24.30;22.13;;;19.20;99.90;;;;;;5071191;28;20605;-47
2021/06/06 05:05:44;;;;;;;24.87;22.37;;;19.30;99.90;;;;;;5072880;28;20445;-48
2021/06/06 05:08:12;;;;;;;24.33;22.13;;;19.30;99.90;;;;;;5071924;28;20431;-49
2021/06/06 05:10:40;;;;;;;23.30;21.13;;;19.40;99.90;;;;;;5083642;28;20765;-46
2021/06/06 05:13:06;;;;;;;24.10;21.90;;;19.40;99.90;;;;;;5075403;28;20447;-50
2021/06/06 05:15:32;;;;;;;22.43;20.43;;;19.50;99.90;;;;;;5079047;28;20441;-50
2021/06/06 05:17:58;;;;;;;23.60;21.50;;;19.60;99.90;;;;;;5071258;28;20451;-52
2021/06/06 05:20:45;;;;;;;22.43;20.43;;;19.70;99.90;;;;;;5077428;28;20780;-50
2021/06/06 05:23:12;;;;;;;22.10;19.93;;;19.80;99.90;;;;;;5074294;28;20459;-50
2021/06/06 05:25:40;;;;;;;24.07;21.67;;;19.80;99.90;;;;;;5069698;28;20481;-47
2021/06/06 05:28:08;;;;;;;22.27;20.27;;;19.90;99.90;;;;;;5062642;28;20431;-49
2021/06/06 05:30:36;;;;;;;22.17;19.97;;;20.10;99.90;;;;;;5078071;28;20438;-49
2021/06/06 05:33:03;;;;;;;22.33;20.40;;;20.00;99.90;;;;;;5071928;28;20431;-52
2021/06/06 05:35:30;;;;;;;22.43;20.43;;;20.10;99.90;;;;;;5071961;28;20446;-51
2021/06/06 05:37:56;;;;;;;22.10;20.10;;;20.00;99.90;;;;;;5071121;28;20513;-51
2021/06/06 05:40:25;;;;;;;20.53;18.73;;;20.10;99.90;;;;;;5071139;28;20450;-49
2021/06/06 05:42:51;;;;;;;22.43;20.40;;;20.20;99.90;;;;;;5070536;28;21012;-47
2021/06/06 05:45:20;;;;;;;22.30;20.30;;;20.20;99.90;;;;;;5083524;28;20437;-50
2021/06/06 05:47:45;;;;;;;22.30;20.30;;;20.20;99.90;;;;;;5077145;28;20514;-50
2021/06/06 05:50:15;;;;;;;21.20;19.20;;;20.10;99.90;;;;;;5072688;28;20947;-50
2021/06/06 05:52:41;;;;;;;22.80;20.70;;;20.20;99.90;;;;;;5080705;28;20186;-49
2021/06/06 05:55:07;;;;;;;22.50;20.50;;;20.10;99.90;;;;;;5072620;28;20446;-48
2021/06/06 05:57:34;;;;;;;21.90;19.97;;;20.20;99.90;;;;;;5079388;28;20184;-47
2021/06/06 05:59:59;;;;;;;21.70;19.80;;;20.30;99.90;;;;;;5060881;28;20499;-51
2021/06/06 06:02:25;;;;;;;22.37;20.33;;;20.50;99.90;;;;;;5071251;28;21015;-49
2021/06/06 06:04:51;;;;;;;21.73;19.83;;;20.60;99.90;;;;;;5070436;28;20636;-47
2021/06/06 06:07:16;;;;;;;21.70;19.80;;;20.50;99.90;;;;;;5072495;28;20226;-50
2021/06/06 06:09:42;;;;;;;21.90;19.70;;;20.60;99.90;;;;;;5076275;28;20439;-48
2021/06/06 06:12:09;;;;;;;23.83;21.73;;;20.70;99.90;;;;;;5070374;28;20189;-50
2021/06/06 06:14:34;;;;;;;21.83;19.83;;;20.50;99.90;;;;;;5076399;28;20449;-50
2021/06/06 06:17:00;;;;;;;22.67;20.57;;;20.70;99.90;;;;;;5066716;28;20447;-48
2021/06/06 06:19:26;;;;;;;22.97;20.83;;;20.60;99.90;;;;;;5070628;28;20195;-48
2021/06/06 06:21:51;;;;;;;22.47;20.47;;;20.50;99.90;;;;;;5064549;28;20188;-53
2021/06/06 06:24:17;;;;;;;22.23;20.23;;;20.60;99.90;;;;;;5066378;28;20550;-49
2021/06/06 06:26:43;;;;;;;22.47;20.47;;;20.70;99.90;;;;;;5069674;28;20185;-48
2021/06/06 06:29:10;;;;;;;22.50;20.40;;;20.90;99.90;;;;;;5069511;28;20213;-50
2021/06/06 06:31:37;;;;;;;21.90;19.90;;;20.90;99.90;;;;;;5068219;28;20796;-47
2021/06/06 06:34:04;;;;;;;22.60;20.70;;;21.00;99.90;;;;;;5068348;28;20567;-51
2021/06/06 06:36:30;;;;;;;20.73;19.03;;;21.00;99.90;;;;;;5066807;28;20789;-48
2021/06/06 06:38:56;;;;;;;21.60;19.70;;;21.20;99.90;;;;;;5067599;28;20443;-50
2021/06/06 06:41:24;;;;;;;22.90;21.00;;;21.30;99.90;;;;;;5069016;28;21160;-48
2021/06/06 06:43:51;;;;;;;21.53;19.63;;;21.20;99.90;;;;;;5068171;28;20463;-50
2021/06/06 06:46:17;;;;;;;21.50;19.70;;;21.30;99.90;;;;;;5069085;28;20502;-49
2021/06/06 06:48:42;;;;;;;20.87;19.17;;;21.60;99.90;;;;;;5069740;28;21288;-51
2021/06/06 06:51:09;;;;;;;20.83;18.97;;;21.70;99.90;;;;;;5066731;28;20504;-54
2021/06/06 06:53:35;;;;;;;22.10;20.20;;;21.80;99.90;;;;;;5068019;28;20652;-51
2021/06/06 06:56:00;;;;;;;20.60;18.90;;;21.90;99.90;;;;;;5069109;28;20435;-47
2021/06/06 06:58:26;;;;;;;21.43;19.73;;;21.90;99.90;;;;;;5068664;28;20192;-48
2021/06/06 07:00:54;;;;;;;21.10;19.40;;;22.10;99.90;;;;;;5069086;28;20349;-49
2021/06/06 07:03:25;;;;;;;20.93;19.23;;;22.20;99.90;;;;;;5057771;28;20220;-53
2021/06/06 07:05:51;;;;;;;21.03;19.23;;;22.30;99.90;;;;;;5068725;28;20441;-50
2021/06/06 07:08:20;;;;;;;21.33;19.40;;;22.20;99.90;;;;;;5068613;28;20431;-49
2021/06/06 07:10:46;;;;;;;20.83;19.13;;;22.20;99.90;;;;;;5068534;28;20492;-51
2021/06/06 07:13:12;;;;;;;21.23;19.23;;;22.10;99.90;;;;;;5068528;28;20431;-48
2021/06/06 07:15:38;;;;;;;22.00;20.13;;;22.20;99.90;;;;;;5067547;28;20303;-47
2021/06/06 07:18:09;;;;;;;21.10;19.33;;;22.00;99.90;;;;;;5067962;28;20467;-49
2021/06/06 07:20:38;;;;;;;21.67;19.67;;;22.00;99.90;;;;;;5067199;28;20431;-50
2021/06/06 07:23:05;;;;;;;22.07;20.17;;;22.00;99.90;;;;;;5068964;28;20470;-49
2021/06/06 07:25:32;;;;;;;21.67;19.87;;;21.90;99.90;;;;;;5068820;28;20419;-53
2021/06/06 07:27:58;;;;;;;22.60;20.70;;;21.70;99.90;;;;;;5068204;28;20439;-50
2021/06/06 07:30:28;;;;;;;22.10;20.10;;;21.50;99.90;;;;;;5068902;28;20426;-52
2021/06/06 07:32:54;;;;;;;19.90;18.20;;;21.10;99.90;;;;;;5067288;28;20836;-52
2021/06/06 07:35:23;;;;;;;21.10;19.30;;;21.10;99.90;;;;;;5069432;28;20436;-50
2021/06/06 07:37:50;;;;;;;21.07;19.37;;;21.10;99.90;;;;;;5062171;28;20434;-47
2021/06/06 07:40:16;;;;;;;20.80;19.03;;;21.30;99.90;;;;;;5067644;28;20470;-48
2021/06/06 07:42:42;;;;;;;20.70;19.00;;;21.40;99.90;;;;;;5061588;28;20470;-52
2021/06/06 07:45:12;;;;;;;20.73;19.03;;;21.60;99.90;;;;;;5069161;28;20446;-50
2021/06/06 07:47:40;;;;;;;21.63;19.77;;;21.80;99.90;;;;;;5068425;28;20462;-46
2021/06/06 07:50:07;;;;;;;22.17;20.37;;;21.90;99.90;;;;;;5068278;28;20431;-47
2021/06/06 07:52:35;;;;;;;21.23;19.50;;;22.10;99.90;;;;;;5069301;28;20502;-45
2021/06/06 07:55:06;;;;;;;20.13;18.43;;;22.10;99.90;;;;;;5069556;28;20432;-52
2021/06/06 07:57:31;;;;;;;21.00;19.30;;;22.10;99.90;;;;;;5067316;28;20458;-45
2021/06/06 07:59:57;;;;;;;20.03;18.40;;;22.30;99.90;;;;;;5068684;28;20900;-50
2021/06/06 08:02:22;;;;;;;20.43;18.73;;;22.40;99.90;;;;;;5067137;28;20288;-47
2021/06/06 08:04:48;;;;;;;20.87;19.07;;;22.50;99.90;;;;;;5069558;28;20181;-51
2021/06/06 08:07:13;;;;;;;19.83;18.13;;;22.50;99.90;;;;;;5067741;28;20246;-47
2021/06/06 08:09:39;;;;;;;19.27;17.67;;;22.60;99.90;;;;;;5068662;28;20258;-52
2021/06/06 08:12:05;;;;;;;20.60;18.90;;;22.60;99.90;;;;;;5068906;28;20188;-50
2021/06/06 08:14:30;;;;;;;20.73;19.03;;;22.60;99.90;;;;;;5067982;28;20243;-52
2021/06/06 08:16:56;;;;;;;19.77;18.27;;;22.60;99.90;;;;;;5067528;28;20446;-47
2021/06/06 08:19:22;;;;;;;19.23;17.73;;;22.70;99.90;;;;;;5068982;28;20234;-48
2021/06/06 08:21:48;;;;;;;20.13;18.33;;;22.80;99.90;;;;;;5067894;28;20273;-48
2021/06/06 08:24:14;;;;;;;20.13;18.37;;;22.90;99.90;;;;;;5064086;28;20177;-46
2021/06/06 08:26:40;;;;;;;18.70;16.93;;;22.90;99.90;;;;;;5068912;28;20418;-47
2021/06/06 08:29:07;;;;;;;19.20;17.73;;;22.90;99.90;;;;;;5068317;28;20242;-49
2021/06/06 08:31:37;;;;;;;19.33;17.73;;;22.90;99.90;;;;;;5068165;28;20524;-46
2021/06/06 08:34:04;;;;;;;19.20;17.70;;;22.90;99.90;;;;;;5067383;28;20443;-48
2021/06/06 08:36:40;;;;;;;18.67;17.23;;;23.00;99.90;;;;;;5063270;28;20427;-46
2021/06/06 08:39:28;;;;;;;19.10;17.60;;;23.10;99.90;;;;;;5066904;28;20484;-50
2021/06/06 08:42:19;;;;;;;18.93;17.43;;;23.30;99.90;;;;;;5067404;28;20805;-51
2021/06/06 08:45:07;;;;;;;17.13;15.90;;;23.40;99.90;;;;;;5058394;28;20433;-49
2021/06/06 08:47:34;;;;;;;20.00;18.50;;;23.60;99.90;;;;;;5056393;28;20526;-52
2021/06/06 08:50:10;;;;;;;16.67;15.37;;;23.70;99.90;;;;;;5066298;28;20412;-50
2021/06/06 08:53:03;;;;;;;19.13;17.73;;;23.80;99.90;;;;;;5056021;28;20415;-52
2021/06/06 08:55:57;;;;;;;18.37;16.97;;;23.90;99.90;;;;;;5064235;28;20441;-47
2021/06/06 08:58:42;;;;;;;18.20;16.70;;;24.20;99.90;;;;;;5061119;28;20499;-50
2021/06/06 09:01:33;;;;;;;18.93;17.50;;;24.40;99.90;;;;;;5067519;28;20459;-52
2021/06/06 09:04:02;;;;;;;17.33;15.93;;;24.50;99.90;;;;;;5065252;28;20499;-49
2021/06/06 09:06:46;;;;;;;18.87;17.23;;;24.70;99.90;;;;;;5065994;28;20907;-54
2021/06/06 09:09:13;;;;;;;16.83;15.63;;;24.80;99.90;;;;;;5067287;28;20451;-48
2021/06/06 09:11:39;;;;;;;16.60;15.40;;;25.20;99.90;;;;;;5066398;28;20427;-47
2021/06/06 09:14:05;;;;;;;14.40;13.40;;;25.30;99.90;;;;;;5067867;28;20980;-50
2021/06/06 09:16:56;;;;;;;14.10;13.10;;;25.90;99.90;;;;;;5068054;28;20431;-53
2021/06/06 09:19:23;;;;;;;14.57;13.57;;;26.60;94.50;;;;;;5067164;28;20463;-51
2021/06/06 09:21:52;;;;;;;15.00;13.90;;;26.90;96.10;;;;;;5067569;28;20438;-51
2021/06/06 09:24:32;;;;;;;13.90;12.90;;;27.00;95.70;;;;;;5067325;28;20419;-52
2021/06/06 09:27:18;;;;;;;13.50;12.70;;;27.60;92.50;;;;;;5067125;28;20497;-49
2021/06/06 09:29:44;;;;;;;12.90;12.00;;;27.90;88.00;;;;;;5081532;28;20430;-49
2021/06/06 09:32:19;;;;;;;13.33;12.33;;;28.50;78.70;;;;;;5067655;28;20925;-49
2021/06/06 09:35:25;;;;;;;12.57;11.77;;;29.40;71.10;;;;;;5070149;28;20426;-56
2021/06/06 09:38:12;;;;;;;11.73;10.93;;;30.10;71.80;;;;;;5062692;28;20407;-50
2021/06/06 09:40:42;;;;;;;13.13;12.10;;;30.70;64.80;;;;;;5061379;28;20419;-49
2021/06/06 09:43:19;;;;;;;12.67;11.80;;;31.00;55.20;;;;;;5068612;28;21076;-52
2021/06/06 09:45:46;;;;;;;11.30;10.60;;;31.40;53.60;;;;;;5071042;28;20419;-47
2021/06/06 09:48:23;;;;;;;10.80;10.10;;;32.10;53.10;;;;;;5070036;28;20451;-52
2021/06/06 09:50:51;;;;;;;11.73;11.03;;;32.80;54.30;;;;;;5070868;28;20450;-47
2021/06/06 09:53:32;;;;;;;10.70;10.10;;;32.70;53.20;;;;;;5070989;28;20431;-51
2021/06/06 09:56:06;;;;;;;10.20;9.60;;;33.30;42.10;;;;;;5071157;28;20933;-48
2021/06/06 09:58:34;;;;;;;10.83;10.23;;;33.90;44.30;;;;;;5069673;28;20431;-53
2021/06/06 10:01:26;;;;;;;10.47;9.80;;;33.70;41.60;;;;;;5069159;28;20555;-47
2021/06/06 10:03:58;;;;;;;10.20;9.60;;;33.80;43.60;;;;;;5069494;28;20605;-52
2021/06/06 10:06:26;;;;;;;10.50;9.90;;;34.10;43.80;;;;;;5070482;28;20421;-47
2021/06/06 10:09:07;;;;;;;10.40;9.80;;;34.00;41.00;;;;;;5069646;28;21302;-49
2021/06/06 10:12:00;;;;;;;9.80;9.30;;;34.00;39.50;;;;;;5064404;28;20510;-49
2021/06/06 10:14:31;;;;;;;10.43;9.77;;;34.30;39.70;;;;;;5067636;28;20432;-49
2021/06/06 10:17:01;;;;;;;10.60;10.00;;;35.10;39.00;;;;;;5068989;28;20433;-53
2021/06/06 10:19:59;;;;;;;9.47;8.87;;;35.40;34.50;;;;;;5069417;28;20439;-51
2021/06/06 10:22:32;;;;;;;9.03;8.57;;;35.90;33.30;;;;;;5057790;28;20487;-51
2021/06/06 10:25:10;;;;;;;8.93;8.43;;;36.00;35.10;;;;;;5070418;28;20455;-51
2021/06/06 10:27:40;;;;;;;8.67;8.23;;;36.20;30.40;;;;;;5068556;28;20580;-48
2021/06/06 10:30:26;;;;;;;8.30;7.90;;;36.80;31.60;;;;;;5057715;28;20451;-51
2021/06/06 10:32:57;;;;;;;8.50;8.00;;;37.00;29.40;;;;;;5061042;28;20440;-50
2021/06/06 10:35:29;;;;;;;8.23;7.83;;;37.40;28.40;;;;;;5060998;28;20405;-49
2021/06/06 10:37:58;;;;;;;8.60;8.20;;;37.90;29.00;;;;;;5060846;28;20427;-54
2021/06/06 10:40:41;;;;;;;8.73;8.23;;;37.80;27.90;;;;;;5060214;28;20542;-49
2021/06/06 10:43:17;;;;;;;8.83;8.33;;;36.60;27.80;;;;;;5061072;28;20490;-48
2021/06/06 10:45:48;;;;;;;8.27;7.87;;;35.90;29.40;;;;;;5069377;28;20446;-49
2021/06/06 10:48:24;;;;;;;8.37;7.87;;;36.10;28.10;;;;;;5069779;28;20431;-50
2021/06/06 10:51:04;;;;;;;10.10;9.30;;;36.50;27.00;;;;;;5066153;28;20439;-52
2021/06/06 10:53:31;;;;;;;8.50;7.80;;;37.20;27.50;;;;;;5066413;28;20435;-53
2021/06/06 10:56:33;;;;;;;13.20;9.97;;;36.90;25.20;;;;;;5058070;28;20447;-48
2021/06/06 10:59:04;;;;;;;9.80;8.90;;;36.90;27.70;;;;;;5062965;28;20431;-50
2021/06/06 11:01:51;;;;;;;8.33;7.93;;;37.40;26.20;;;;;;5067362;28;20439;-48
2021/06/06 11:04:26;;;;;;;10.73;9.70;;;37.40;25.50;;;;;;5069422;28;20442;-50
2021/06/06 11:07:09;;;;;;;11.67;10.57;;;37.60;25.60;;;;;;5068889;28;20423;-50
2021/06/06 11:09:37;;;;;;;7.90;7.40;;;38.20;24.40;;;;;;5067548;28;20443;-50
2021/06/06 11:12:12;;;;;;;8.20;7.53;;;38.00;24.30;;;;;;5068023;28;20427;-49
2021/06/06 11:14:49;;;;;;;9.00;8.33;;;37.80;24.90;;;;;;5066697;28;20434;-51
2021/06/06 11:17:32;;;;;;;8.30;7.60;;;38.20;24.70;;;;;;5067607;28;20493;-50
2021/06/06 11:20:32;;;;;;;8.50;7.90;;;38.70;24.70;;;;;;5068248;28;21227;-52
2021/06/06 11:22:58;;;;;;;8.10;7.70;;;38.40;25.10;;;;;;5065686;28;20479;-68
2021/06/06 11:25:35;;;;;;;8.63;8.13;;;38.50;22.80;;;;;;5069060;28;21235;-68
2021/06/06 11:28:22;;;;;;;6.83;6.53;;;38.50;23.70;;;;;;5067295;28;20427;-69
2021/06/06 11:30:48;;;;;;;8.03;7.53;;;38.40;23.10;;;;;;5068709;28;20424;-70
2021/06/06 11:33:25;;;;;;;7.78;7.38;;;38.70;23.60;;;;;;5068787;28;20446;-68
2021/06/06 11:35:53;;;;;;;7.55;7.07;;;39.30;22.70;;;;;;5069129;28;20215;-70
2021/06/06 11:38:18;;;;;;;7.97;7.47;;;39.60;22.10;;;;;;5067750;28;20264;-69
2021/06/06 11:40:50;;;;;;;7.97;7.57;;;39.10;21.70;;;;;;5068787;28;20522;-70
2021/06/06 11:43:34;;;;;;;9.23;8.37;;;39.30;23.60;;;;;;5064437;28;20208;-70
2021/06/06 11:46:16;;;;;;;7.70;7.30;;;39.60;23.10;;;;;;5066752;28;20410;-68
2021/06/06 11:48:56;;;;;;;7.60;7.07;;;39.00;21.90;;;;;;5067211;28;20420;-71
2021/06/06 11:51:31;;;;;;;7.67;7.27;;;39.30;21.60;;;;;;5056121;28;20455;-71
2021/06/06 11:54:02;;;;;;;8.13;7.43;;;38.70;22.20;;;;;;5066355;28;20533;-72
2021/06/06 11:56:32;;;;;;;8.03;7.63;;;37.90;24.00;;;;;;5063565;28;20498;-71
2021/06/06 11:59:16;;;;;;;7.87;7.47;;;37.10;21.30;;;;;;5066337;28;20431;-69
2021/06/06 12:01:51;;;;;;;7.80;7.40;;;36.20;23.70;;;;;;5066969;28;20428;-70
2021/06/06 12:04:30;;;;;;;7.43;7.03;;;35.70;25.30;;;;;;5066273;28;20535;-72
2021/06/06 12:06:56;;;;;;;7.50;7.00;;;35.20;25.70;;;;;;5065729;28;20430;-70
2021/06/06 12:09:30;;;;;;;7.40;7.00;;;34.80;26.70;;;;;;5067396;28;20411;-72
2021/06/06 12:12:06;;;;;;;8.83;7.77;;;34.80;24.70;;;;;;5066403;28;20925;-70
2021/06/06 12:14:33;;;;;;;8.30;7.70;;;34.50;27.00;;;;;;5064472;28;20435;-71
2021/06/06 12:17:03;;;;;;;8.37;7.87;;;34.30;28.00;;;;;;5066206;28;20423;-65
2021/06/06 12:19:44;;;;;;;7.63;7.23;;;34.10;26.60;;;;;;5066366;28;20455;-67
2021/06/06 12:22:22;;;;;;;8.03;7.63;;;34.10;27.40;;;;;;5066107;28;20416;-71
2021/06/06 12:25:30;;;;;;;7.23;6.83;;;34.10;26.40;;;;;;5066949;28;20415;-76
2021/06/06 12:28:18;;;;;;;7.60;7.20;;;33.90;26.90;;;;;;5064389;28;20455;-71
2021/06/06 12:30:46;;;;;;;8.63;8.13;;;33.80;26.50;;;;;;5065331;28;20435;-71
2021/06/06 12:33:27;;;;;;;7.50;7.10;;;34.10;27.50;;;;;;5065495;28;21030;-67
2021/06/06 12:36:01;;;;;;;7.70;7.30;;;34.30;23.70;;;;;;5064583;28;20427;-68
2021/06/06 12:38:28;;;;;;;7.80;7.40;;;33.80;25.10;;;;;;5064536;28;20955;-68
2021/06/06 12:40:54;;;;;;;7.63;7.20;;;34.00;27.70;;;;;;5063191;28;20435;-68
2021/06/06 12:43:25;;;;;;;7.43;7.13;;;34.00;26.50;;;;;;5065513;28;20770;-67
2021/06/06 12:45:52;;;;;;;7.70;7.20;;;34.20;25.70;;;;;;5066187;28;20438;-70
2021/06/06 12:48:24;;;;;;;7.83;7.43;;;34.40;26.80;;;;;;5067404;28;20436;-75
2021/06/06 12:50:50;;;;;;;8.07;7.57;;;34.60;26.70;;;;;;5065397;28;20466;-71